KGYY/GYY METAR and TAF weather

Enter ICAO airport designator
Station Type Date Time Source
KGYY METAR 2020/07/14 07:35 UTC NOAA

KGYY 140735Z AUTO 00000KT 10SM CLR 16/16 A3002 RMK AO2 T01620162


Station Type Date Time Source
KGYY Decoded METAR 2020/07/14 07:35 UTC NOAA

Gary Regional, IN, United States (KGYY) 41-37N 087-25W
Jul 14, 2020 - 03:35 AM EDT / 2020.07.14 0735 UTC
Wind: Calm:0
Visibility: 10 mile(s):0
Sky conditions: clear
Temperature: 61.2 F (16.2 C)
Dew Point: 61.2 F (16.2 C)
Relative Humidity: 100%
Pressure (altimeter): 30.02 in. Hg (1016 hPa)
ob: KGYY 140735Z AUTO 00000KT 10SM CLR 16/16 A3002 RMK AO2 T01620162
cycle: 7

Station Type Date Time Source
KGYY TAF 2020/07/14 06:24 UTC NOAA

TAF KGYY 140523Z 1406/1506 VRB03KT P6SM FEW250
FM141300 17008KT P6SM SCT250

Example: see airport list